Terminal Aerodrome Forecast
Issued by NWS

Home | Current Version | Previous Version | Text Only | Print | Product List | Glossary On
Versions: 1 2 3 4 5 6 7 8 9 10 11 12 13
835
FTUS44 KLZK 240311 AAA
TAFLIT
TAF AMD
KLIT 240311Z 2403/2424 VRB05KT P6SM VCTS SCT045CB BKN250
      TEMPO 2403/2405 TSRA BKN050CB
     FM240500 VRB03KT P6SM SCT100 BKN250
      TEMPO 2410/2414 5SM BR
     FM241500 23005KT P6SM SCT045 SCT250=

USA.gov is the U.S. government's official web portal to all federal, state and local government web resources and services.